Boonville, CA (95415)

7:55 AM PST on February 09, 2016 (GMT -0800)
Anderson Valley | | Change Station
CLOSE
Current Station
Personal Weather Station
Location: Boonville, CA
Elevation: 410 ft
Nearby Weather Stations

Elev 410 ft 39.01 °N, 123.36 °W | Updated 13 minutes ago

Clear
Clear
37.9 °F
Feels Like 38 °F
N
0.0
Wind Variable Wind from ESE
Gusts 0.0 mph

Today
High -- | Low -- °F
--% Chance of Precip.
Yesterday
High -- | Low -- °F
Precip. -- in
Pressure 30.23 in
Visibility 10.0 miles
Clouds Clear
Windchill 38 °F
Dew Point 28 °F
Humidity 70%
Rainfall 0.00 in
Snow Depth Not available.
7:12 AM 5:43 PM
New Moon, 1% visible
METAR KUKI 091456Z AUTO 00000KT 10SM CLR 04/03 A3024 RMK AO2 SLP237 T00390028 53011
Pressure 30.23 in
Visibility 10.0 miles
Clouds Clear
Windchill 38 °F
Dew Point 28 °F
Humidity 70%
Rainfall 0.00 in
Snow Depth Not available.
7:12 AM 5:43 PM
New Moon, 1% visible
METAR KUKI 091456Z AUTO 00000KT 10SM CLR 04/03 A3024 RMK AO2 SLP237 T00390028 53011

10-Day Weather Forecast

Almanac

Astronomy

Feb. 09, 2016 Rise Set
Actual Time
Civil Twilight
Nautical Twilight
Astronomical Twilight
Moon
Length of Visible Light
Length of Day
Tomorrow will be .
, % of the Moon is Illuminated

Today's Extremes

State Highs State Lows

Community

WunderPhotos

Upload Photos

1,891,628 photos uploaded!

WunderBlog® & News

Nearby

Air Quality

  Air Quality AQ Index Pollutant
Not available.

Snow Depth

Station Depth Elevation

Earthquake Activity

City Distance Mag. Time & Date
Minimum magnitude displayed is 2.5.

Coastal Water Temperatures

Place Temperature

Stations

Nearby Weather Stations

Station Location Temp. Windchill Dew Point Humidity Wind Precip. Elev Updated Type
                   

Watches & Warnings

There are currently no watches in effect.